createdAt,value
2017-10-21T00:00:24.282Z,29.7
2017-10-21T00:01:26.184Z,29.7
2017-10-21T00:02:25.937Z,29.7
2017-10-21T00:03:24.411Z,29.7
2017-10-21T00:04:24.778Z,29.7
2017-10-21T00:05:26.088Z,29.7
2017-10-21T00:06:26.473Z,29.7
2017-10-21T00:07:26.211Z,29.7
2017-10-21T00:08:26.520Z,29.7
2017-10-21T00:09:24.627Z,29.7
2017-10-21T00:10:24.686Z,29.7
2017-10-21T00:11:26.336Z,29.7
2017-10-21T00:12:25.087Z,29.7
2017-10-21T00:13:24.852Z,29.7
2017-10-21T00:14:26.874Z,29.7
2017-10-21T00:15:25.325Z,29.7
2017-10-21T00:16:26.977Z,29.7
2017-10-21T00:17:26.648Z,29.7
2017-10-21T00:18:26.742Z,29.7
2017-10-21T00:19:25.160Z,29.7
2017-10-21T00:20:25.226Z,29.7
2017-10-21T00:21:25.291Z,29.7
2017-10-21T00:22:26.995Z,29.7
2017-10-21T00:23:25.777Z,29.7
2017-10-21T00:24:25.869Z,29.7
2017-10-21T00:25:27.243Z,29.7
2017-10-21T00:26:27.549Z,29.7
2017-10-21T00:27:26.041Z,29.7
2017-10-21T00:28:26.117Z,29.7
2017-10-21T00:29:26.156Z,29.7
2017-10-21T00:30:27.559Z,29.7
2017-10-21T00:31:27.895Z,29.7
2017-10-21T00:32:26.087Z,29.7
2017-10-21T00:33:28.039Z,29.7
2017-10-21T00:34:26.467Z,29.7
2017-10-21T00:35:27.779Z,29.7
2017-10-21T00:36:26.526Z,29.7
2017-10-21T00:37:26.489Z,29.7
2017-10-21T00:38:26.548Z,29.7
2017-10-21T00:39:28.266Z,29.7
2017-10-21T00:40:28.259Z,29.7
2017-10-21T00:41:26.720Z,29.7
2017-10-21T00:42:26.793Z,29.7
2017-10-21T00:43:26.603Z,29.7
2017-10-21T00:44:26.586Z,29.7
2017-10-21T00:45:26.672Z,29.7
2017-10-21T00:46:28.615Z,29.7
2017-10-21T00:47:28.359Z,29.7
2017-10-21T00:48:28.390Z,29.7
2017-10-21T00:49:26.774Z,29.7
2017-10-21T00:50:26.861Z,29.7
2017-10-21T00:51:28.913Z,29.7
2017-10-21T00:52:28.873Z,29.7
2017-10-21T00:53:27.033Z,29.7
2017-10-21T00:54:27.006Z,29.7
2017-10-21T00:55:29.028Z,29.7
2017-10-21T00:56:27.151Z,29.7
2017-10-21T00:57:27.565Z,29.7
2017-10-21T00:58:28.905Z,29.7
2017-10-21T00:59:27.314Z,29.7
2017-10-21T01:00:28.508Z,29.7
2017-10-21T01:01:27.743Z,29.7
2017-10-21T01:02:29.459Z,29.7
2017-10-21T01:03:27.598Z,29.7
2017-10-21T01:04:27.553Z,29.7
2017-10-21T01:05:27.928Z,29.7
2017-10-21T01:06:29.607Z,29.7
2017-10-21T01:07:27.707Z,29.7
2017-10-21T01:08:28.120Z,29.7
2017-10-21T01:09:29.759Z,29.7
2017-10-21T01:10:27.894Z,29.7
2017-10-21T01:11:28.190Z,29.7
2017-10-21T01:12:28.285Z,29.7
2017-10-21T01:13:29.576Z,29.7
2017-10-21T01:14:28.110Z,29.7
2017-10-21T01:15:28.246Z,29.7
2017-10-21T01:16:28.068Z,29.7
2017-10-21T01:17:28.099Z,29.7
2017-10-21T01:18:30.120Z,29.7
2017-10-21T01:19:28.406Z,29.7
2017-10-21T01:20:28.169Z,29.7
2017-10-21T01:21:28.539Z,29.7
2017-10-21T01:22:28.173Z,29.7
2017-10-21T01:23:28.243Z,29.7
2017-10-21T01:24:28.674Z,29.7
2017-10-21T01:25:30.326Z,29.7
2017-10-21T01:26:30.368Z,29.7
2017-10-21T01:27:28.835Z,29.7
2017-10-21T01:28:30.203Z,29.7
2017-10-21T01:29:30.276Z,29.7
2017-10-21T01:30:29.072Z,29.7
2017-10-21T01:31:28.832Z,29.7
2017-10-21T01:32:28.886Z,29.7
2017-10-21T01:33:29.236Z,29.7
2017-10-21T01:34:29.357Z,29.7
2017-10-21T01:35:30.678Z,29.7
2017-10-21T01:36:29.081Z,29.7
2017-10-21T01:37:30.818Z,29.7
2017-10-21T01:38:29.462Z,29.7
2017-10-21T01:39:29.595Z,29.7
2017-10-21T01:40:29.308Z,29.7
2017-10-21T01:41:31.031Z,29.7
2017-10-21T01:42:29.687Z,29.7
2017-10-21T01:43:29.643Z,29.7
2017-10-21T01:44:29.736Z,29.7
2017-10-21T01:45:29.524Z,29.7
2017-10-21T01:46:31.137Z,29.7
2017-10-21T01:47:29.574Z,29.7
2017-10-21T01:48:29.840Z,29.7
2017-10-21T01:49:31.181Z,29.7
2017-10-21T01:50:29.873Z,29.7
2017-10-21T01:51:29.912Z,29.6
2017-10-21T01:52:31.586Z,29.7
2017-10-21T01:53:29.674Z,29.7
2017-10-21T01:54:29.747Z,29.7
2017-10-21T01:55:31.786Z,29.7
2017-10-21T01:56:31.800Z,29.7
2017-10-21T01:57:31.846Z,29.7
2017-10-21T01:58:31.899Z,29.6
2017-10-21T01:59:31.988Z,29.7
2017-10-21T02:00:31.732Z,29.7
2017-10-21T02:01:30.419Z,29.7
2017-10-21T02:02:30.212Z,29.7
2017-10-21T02:03:30.275Z,29.7
2017-10-21T02:04:32.238Z,29.7
2017-10-21T02:05:31.979Z,29.7
2017-10-21T02:06:30.675Z,29.7
2017-10-21T02:07:30.454Z,29.7
2017-10-21T02:08:32.437Z,29.7
2017-10-21T02:09:32.112Z,29.7
2017-10-21T02:10:32.117Z,29.7
2017-10-21T02:11:32.231Z,29.7
2017-10-21T02:12:32.580Z,29.7
2017-10-21T02:13:30.952Z,29.7
2017-10-21T02:14:31.001Z,29.7
2017-10-21T02:15:32.658Z,29.7
2017-10-21T02:16:32.712Z,29.7
2017-10-21T02:17:32.456Z,29.7
2017-10-21T02:18:32.429Z,29.7
2017-10-21T02:19:32.515Z,29.7
2017-10-21T02:20:32.931Z,29.7
2017-10-21T02:21:31.324Z,29.7
2017-10-21T02:22:31.386Z,29.7
2017-10-21T02:23:33.068Z,29.7
2017-10-21T02:24:33.146Z,29.7
2017-10-21T02:25:33.222Z,29.7
2017-10-21T02:26:31.633Z,29.7
2017-10-21T02:27:33.024Z,29.7
2017-10-21T02:28:31.526Z,29.7
2017-10-21T02:29:31.825Z,29.7
2017-10-21T02:30:33.228Z,29.7
2017-10-21T02:31:33.511Z,29.7
2017-10-21T02:32:33.585Z,29.7
2017-10-21T02:33:33.646Z,29.7
2017-10-21T02:34:33.314Z,29.7
2017-10-21T02:35:33.640Z,29.7
2017-10-21T02:36:33.681Z,29.7
2017-10-21T02:37:32.076Z,29.7
2017-10-21T02:38:31.886Z,29.7
2017-10-21T02:39:32.232Z,29.7
2017-10-21T02:40:34.001Z,29.7
2017-10-21T02:41:32.410Z,29.7
2017-10-21T02:42:34.071Z,29.7
2017-10-21T02:43:32.556Z,29.7
2017-10-21T02:44:32.354Z,29.7
2017-10-21T02:45:32.405Z,29.7
2017-10-21T02:46:34.358Z,29.7
2017-10-21T02:47:34.390Z,29.7
2017-10-21T02:48:32.463Z,29.7
2017-10-21T02:49:34.152Z,29.7
2017-10-21T02:50:32.554Z,29.7
2017-10-21T02:51:34.589Z,29.7
2017-10-21T02:52:32.646Z,29.7
2017-10-21T02:53:34.279Z,29.7
2017-10-21T02:54:34.311Z,29.7
2017-10-21T02:55:33.016Z,29.7
2017-10-21T02:56:34.694Z,29.7
2017-10-21T02:57:34.501Z,29.7
2017-10-21T02:58:34.848Z,29.7
2017-10-21T02:59:33.000Z,29.7
2017-10-21T03:00:33.265Z,29.7
2017-10-21T03:01:35.174Z,29.7
2017-10-21T03:02:33.002Z,29.7
2017-10-21T03:03:33.347Z,29.7
2017-10-21T03:04:34.753Z,29.7
2017-10-21T03:05:33.159Z,29.6
2017-10-21T03:06:35.188Z,29.7
2017-10-21T03:07:33.325Z,29.7
2017-10-21T03:08:34.964Z,29.7
2017-10-21T03:09:33.455Z,29.7
2017-10-21T03:10:33.511Z,29.7
2017-10-21T03:11:33.613Z,29.7
2017-10-21T03:12:35.298Z,29.7
2017-10-21T03:13:35.686Z,29.6
2017-10-21T03:14:34.067Z,29.7
2017-10-21T03:15:35.444Z,29.7
2017-10-21T03:16:35.761Z,29.7
2017-10-21T03:17:35.869Z,29.7
2017-10-21T03:18:35.848Z,29.7
2017-10-21T03:19:35.873Z,29.6
2017-10-21T03:20:33.960Z,29.7
2017-10-21T03:21:34.360Z,29.7
2017-10-21T03:22:35.763Z,29.6
2017-10-21T03:23:35.767Z,29.7
2017-10-21T03:24:36.153Z,29.7
2017-10-21T03:25:34.272Z,29.7
2017-10-21T03:26:36.263Z,29.7
2017-10-21T03:27:36.374Z,29.7
2017-10-21T03:28:34.909Z,29.7
2017-10-21T03:29:34.701Z,29.7
2017-10-21T03:30:36.108Z,29.7
2017-10-21T03:31:34.576Z,29.6
2017-10-21T03:32:34.956Z,29.6
2017-10-21T03:33:34.722Z,29.6
2017-10-21T03:34:36.365Z,29.7
2017-10-21T03:35:36.788Z,29.6
2017-10-21T03:36:36.870Z,29.7
2017-10-21T03:37:34.980Z,29.7
2017-10-21T03:38:35.101Z,29.7
2017-10-21T03:39:36.676Z,29.7
2017-10-21T03:40:36.670Z,29.6
2017-10-21T03:41:35.052Z,29.7
2017-10-21T03:42:36.754Z,29.7
2017-10-21T03:43:35.193Z,29.7
2017-10-21T03:44:35.468Z,29.7
2017-10-21T03:45:35.268Z,29.7
2017-10-21T03:46:36.941Z,29.7
2017-10-21T03:47:36.989Z,29.7
2017-10-21T03:48:37.035Z,29.7
2017-10-21T03:49:37.064Z,29.7
2017-10-21T03:50:35.795Z,29.7
2017-10-21T03:51:35.832Z,29.7
2017-10-21T03:52:37.221Z,29.7
2017-10-21T03:53:37.191Z,29.7
2017-10-21T03:54:37.592Z,29.7
2017-10-21T03:55:37.298Z,29.7
2017-10-21T03:56:37.464Z,29.6
2017-10-21T03:57:37.704Z,29.7
2017-10-21T03:58:35.835Z,29.7
2017-10-21T03:59:37.510Z,29.6
2017-10-21T04:00:35.983Z,29.6
2017-10-21T04:01:36.378Z,29.6
2017-10-21T04:02:37.677Z,29.6
2017-10-21T04:03:36.404Z,29.6
2017-10-21T04:04:36.149Z,29.7
2017-10-21T04:05:38.095Z,29.7
2017-10-21T04:06:38.179Z,29.6
2017-10-21T04:07:38.240Z,29.6
2017-10-21T04:08:36.623Z,29.6
2017-10-21T04:09:38.283Z,29.6
2017-10-21T04:10:38.324Z,29.6
2017-10-21T04:11:36.666Z,29.6
2017-10-21T04:12:38.030Z,29.6
2017-10-21T04:13:38.074Z,29.6
2017-10-21T04:14:36.768Z,29.6
2017-10-21T04:15:38.409Z,29.6
2017-10-21T04:16:36.885Z,29.6
2017-10-21T04:17:38.598Z,29.6
2017-10-21T04:18:36.947Z,29.6
2017-10-21T04:19:38.623Z,29.6
2017-10-21T04:20:36.794Z,29.6
2017-10-21T04:21:37.072Z,29.6
2017-10-21T04:22:38.808Z,29.6
2017-10-21T04:23:37.184Z,29.6
2017-10-21T04:24:38.600Z,29.6
2017-10-21T04:25:37.252Z,29.6
2017-10-21T04:26:37.012Z,29.6
2017-10-21T04:27:38.702Z,29.7
2017-10-21T04:28:37.456Z,29.6
2017-10-21T04:29:38.811Z,29.7
2017-10-21T04:30:37.568Z,29.6
2017-10-21T04:31:37.948Z,29.6
2017-10-21T04:32:37.447Z,29.6
2017-10-21T04:33:37.474Z,29.7
2017-10-21T04:34:39.393Z,29.7
2017-10-21T04:35:37.517Z,29.7
2017-10-21T04:36:39.426Z,29.6
2017-10-21T04:37:37.862Z,29.7
2017-10-21T04:38:39.588Z,29.7
2017-10-21T04:39:39.287Z,29.7
2017-10-21T04:40:39.354Z,29.6
2017-10-21T04:41:39.767Z,29.6
2017-10-21T04:42:39.809Z,29.6
2017-10-21T04:43:37.932Z,29.6
2017-10-21T04:44:38.262Z,29.6
2017-10-21T04:45:39.660Z,29.6
2017-10-21T04:46:39.811Z,29.6
2017-10-21T04:47:38.426Z,29.6
2017-10-21T04:48:39.838Z,29.6
2017-10-21T04:49:39.869Z,29.6
2017-10-21T04:50:38.508Z,29.6
2017-10-21T04:51:38.532Z,29.6
2017-10-21T04:52:38.589Z,29.6
2017-10-21T04:53:39.985Z,29.6
2017-10-21T04:54:40.022Z,29.6
2017-10-21T04:55:40.370Z,29.6
2017-10-21T04:56:40.409Z,29.6
2017-10-21T04:57:40.495Z,29.6
2017-10-21T04:58:40.284Z,29.6
2017-10-21T04:59:40.671Z,29.6
2017-10-21T05:00:38.746Z,29.6
2017-10-21T05:01:40.427Z,29.6
2017-10-21T05:02:38.902Z,29.6
2017-10-21T05:03:39.177Z,29.6
2017-10-21T05:04:38.960Z,29.6
2017-10-21T05:05:41.002Z,29.6
2017-10-21T05:06:41.073Z,29.6
2017-10-21T05:07:39.500Z,29.6
2017-10-21T05:08:41.248Z,29.6
2017-10-21T05:09:39.282Z,29.6
2017-10-21T05:10:41.016Z,29.6
2017-10-21T05:11:41.105Z,29.6
2017-10-21T05:12:39.805Z,29.6
2017-10-21T05:13:41.220Z,29.6
2017-10-21T05:14:39.569Z,29.6
2017-10-21T05:15:39.942Z,29.6
2017-10-21T05:16:41.367Z,29.6
2017-10-21T05:17:40.115Z,29.6
2017-10-21T05:18:41.435Z,29.6
2017-10-21T05:19:41.536Z,29.6
2017-10-21T05:20:40.007Z,29.6
2017-10-21T05:21:39.989Z,29.6
2017-10-21T05:22:40.050Z,29.6
2017-10-21T05:23:41.632Z,29.6
2017-10-21T05:24:41.769Z,29.6
2017-10-21T05:25:40.243Z,29.6
2017-10-21T05:26:40.639Z,29.6
2017-10-21T05:27:40.690Z,29.6
2017-10-21T05:28:40.493Z,29.6
2017-10-21T05:29:40.789Z,29.6
2017-10-21T05:30:42.541Z,29.6
2017-10-21T05:31:42.649Z,29.6
2017-10-21T05:32:40.669Z,29.6
2017-10-21T05:33:40.739Z,29.6
2017-10-21T05:34:42.762Z,29.6
2017-10-21T05:35:41.125Z,29.6
2017-10-21T05:36:42.528Z,29.6
2017-10-21T05:37:42.950Z,29.6
2017-10-21T05:38:42.917Z,29.6
2017-10-21T05:39:41.048Z,29.6
2017-10-21T05:40:41.344Z,29.6
2017-10-21T05:41:41.405Z,29.6
2017-10-21T05:42:43.096Z,29.6
2017-10-21T05:43:41.561Z,29.6
2017-10-21T05:44:41.619Z,29.6
2017-10-21T05:45:41.641Z,29.6
2017-10-21T05:46:43.058Z,29.6
2017-10-21T05:47:41.468Z,29.6
2017-10-21T05:48:43.173Z,29.6
2017-10-21T05:49:43.236Z,29.6
2017-10-21T05:50:43.277Z,29.6
2017-10-21T05:51:43.356Z,29.6
2017-10-21T05:52:43.696Z,29.6
2017-10-21T05:53:43.757Z,29.6
2017-10-21T05:54:43.840Z,29.6
2017-10-21T05:55:42.278Z,29.6
2017-10-21T05:56:43.990Z,29.6
2017-10-21T05:57:43.707Z,29.6
2017-10-21T05:58:42.470Z,29.6
2017-10-21T05:59:43.808Z,29.6
2017-10-21T06:00:42.532Z,29.6
2017-10-21T06:01:44.238Z,29.6
2017-10-21T06:02:43.925Z,29.6
2017-10-21T06:03:43.936Z,29.6
2017-10-21T06:04:44.338Z,29.6
2017-10-21T06:05:42.366Z,29.6
2017-10-21T06:06:44.345Z,29.6
2017-10-21T06:07:44.387Z,29.6
2017-10-21T06:08:42.783Z,29.6
2017-10-21T06:09:42.531Z,29.6
2017-10-21T06:10:44.237Z,29.6
2017-10-21T06:11:44.674Z,29.6
2017-10-21T06:12:42.783Z,29.6
2017-10-21T06:13:42.818Z,29.6
2017-10-21T06:14:42.901Z,29.6
2017-10-21T06:15:44.899Z,29.6
2017-10-21T06:16:44.564Z,29.6
2017-10-21T06:17:43.047Z,29.6
2017-10-21T06:18:43.106Z,29.6
2017-10-21T06:19:44.849Z,29.6
2017-10-21T06:20:45.188Z,29.6
2017-10-21T06:21:45.009Z,29.6
2017-10-21T06:22:43.328Z,29.6
2017-10-21T06:23:43.403Z,29.7
2017-10-21T06:24:43.779Z,29.6
2017-10-21T06:25:45.104Z,29.6
2017-10-21T06:26:43.787Z,29.7
2017-10-21T06:27:43.557Z,29.7
2017-10-21T06:28:43.839Z,29.7
2017-10-21T06:29:45.555Z,29.7
2017-10-21T06:30:43.968Z,29.7
2017-10-21T06:31:44.107Z,29.6
2017-10-21T06:32:43.783Z,29.7
2017-10-21T06:33:44.129Z,29.7
2017-10-21T06:34:45.481Z,29.8
2017-10-21T06:35:44.228Z,29.8
2017-10-21T06:36:43.902Z,29.9
2017-10-21T06:37:45.631Z,29.9
2017-10-21T06:38:44.032Z,29.9
2017-10-21T06:39:44.394Z,30
2017-10-21T06:40:45.775Z,30
2017-10-21T06:41:44.162Z,30
2017-10-21T06:42:44.499Z,30
2017-10-21T06:43:44.250Z,30
2017-10-21T06:44:46.255Z,30
2017-10-21T06:45:46.311Z,30.1
2017-10-21T06:46:44.675Z,30.2
2017-10-21T06:47:46.052Z,30.2
2017-10-21T06:48:46.460Z,30.3
2017-10-21T06:49:46.558Z,30.4
2017-10-21T06:50:46.593Z,30.4
2017-10-21T06:51:46.339Z,30.5
2017-10-21T06:52:45.002Z,30.5
2017-10-21T06:53:46.861Z,30.5
2017-10-21T06:54:44.836Z,30.5
2017-10-21T06:55:46.414Z,30.4
2017-10-21T06:56:46.770Z,30.4
2017-10-21T06:57:46.534Z,30.4
2017-10-21T06:58:46.918Z,30.4
2017-10-21T06:59:47.007Z,30.3
2017-10-21T07:00:45.430Z,30.3
2017-10-21T07:01:45.474Z,30.3
2017-10-21T07:02:45.159Z,30.3
2017-10-21T07:03:47.142Z,30.3
2017-10-21T07:04:45.244Z,30.2
2017-10-21T07:05:45.324Z,30.2
2017-10-21T07:06:46.984Z,30.2
2017-10-21T07:07:47.407Z,30.2
2017-10-21T07:08:47.172Z,30.1
2017-10-21T07:09:47.211Z,30.1
2017-10-21T07:10:52.546Z,30.1
2017-10-21T07:11:47.620Z,30.1
2017-10-21T07:12:45.999Z,30.1
2017-10-21T07:13:45.768Z,30.1
2017-10-21T07:14:47.468Z,30.1
2017-10-21T07:15:47.789Z,30
2017-10-21T07:16:47.806Z,30
2017-10-21T07:17:46.220Z,30
2017-10-21T07:18:45.994Z,30
2017-10-21T07:19:46.305Z,30
2017-10-21T07:20:48.007Z,30.1
2017-10-21T07:21:47.716Z,30.1
2017-10-21T07:22:46.457Z,30
2017-10-21T07:23:46.173Z,30
2017-10-21T07:24:47.875Z,30
2017-10-21T07:25:46.414Z,30
2017-10-21T07:26:46.441Z,30
2017-10-21T07:27:48.477Z,30
2017-10-21T07:28:48.555Z,30
2017-10-21T07:29:48.224Z,30
2017-10-21T07:30:46.707Z,30
2017-10-21T07:31:48.316Z,30
2017-10-21T07:32:47.021Z,30
2017-10-21T07:33:47.112Z,30
2017-10-21T07:34:46.838Z,30
2017-10-21T07:35:47.107Z,30
2017-10-21T07:36:48.825Z,30
2017-10-21T07:37:48.555Z,30
2017-10-21T07:38:47.242Z,30
2017-10-21T07:39:47.353Z,30
2017-10-21T07:40:47.349Z,30
2017-10-21T07:41:48.742Z,30
2017-10-21T07:42:49.025Z,30
2017-10-21T07:43:48.837Z,30
2017-10-21T07:44:47.583Z,30
2017-10-21T07:45:48.938Z,30
2017-10-21T07:46:49.341Z,30.1
2017-10-21T07:47:49.027Z,30
2017-10-21T07:48:49.064Z,30
2017-10-21T07:49:47.748Z,30
2017-10-21T07:50:49.500Z,30
2017-10-21T07:51:49.238Z,30
2017-10-21T07:52:49.646Z,30
2017-10-21T07:53:49.756Z,30
2017-10-21T07:54:48.179Z,30.1
2017-10-21T07:55:49.807Z,30.1
2017-10-21T07:56:49.546Z,30.1
2017-10-21T07:57:49.934Z,30.1
2017-10-21T07:58:49.734Z,30.1
2017-10-21T07:59:48.378Z,30.1
2017-10-21T08:00:48.424Z,30.1
2017-10-21T08:01:48.179Z,30.1
2017-10-21T08:02:49.785Z,30.1
2017-10-21T08:03:50.214Z,30.2
2017-10-21T08:04:48.630Z,30.2
2017-10-21T08:05:50.040Z,30.2
2017-10-21T08:06:48.461Z,30.2
2017-10-21T08:07:48.561Z,30.1
2017-10-21T08:08:50.186Z,30.1
2017-10-21T08:09:50.566Z,30.1
2017-10-21T08:10:48.993Z,30.1
2017-10-21T08:11:48.986Z,30.1
2017-10-21T08:12:48.760Z,30.1
2017-10-21T08:13:49.118Z,30.1
2017-10-21T08:14:50.487Z,30.1
2017-10-21T08:15:48.912Z,30.1
2017-10-21T08:16:50.574Z,30.1
2017-10-21T08:17:50.587Z,30.1
2017-10-21T08:18:49.046Z,30.1
2017-10-21T08:19:51.014Z,30.1
2017-10-21T08:20:51.079Z,30.2
2017-10-21T08:21:49.421Z,30.2
2017-10-21T08:22:50.793Z,30.2
2017-10-21T08:23:50.817Z,30.2
2017-10-21T08:24:51.166Z,30.2
2017-10-21T08:25:50.899Z,30.2
2017-10-21T08:26:49.574Z,30.2
2017-10-21T08:27:49.630Z,30.1
2017-10-21T08:28:49.387Z,30.1
2017-10-21T08:29:51.416Z,30.1
2017-10-21T08:30:51.526Z,30.1
2017-10-21T08:31:51.243Z,30.1
2017-10-21T08:32:49.941Z,30.1
2017-10-21T08:33:51.555Z,30.1
2017-10-21T08:34:51.273Z,30.1
2017-10-21T08:35:51.302Z,30.1
2017-10-21T08:36:50.060Z,30.1
2017-10-21T08:37:49.776Z,30.1
2017-10-21T08:38:51.717Z,30.1
2017-10-21T08:39:49.855Z,30.1
2017-10-21T08:40:51.752Z,30.1
2017-10-21T08:41:51.823Z,30.1
2017-10-21T08:42:49.942Z,30.1
2017-10-21T08:43:51.658Z,30.1
2017-10-21T08:44:51.722Z,30.1
2017-10-21T08:45:50.551Z,30.1
2017-10-21T08:46:51.835Z,30.2
2017-10-21T08:47:51.816Z,30.2
2017-10-21T08:48:50.582Z,30.2
2017-10-21T08:49:52.267Z,30.2
2017-10-21T08:50:52.051Z,30.2
2017-10-21T08:51:52.043Z,30.2
2017-10-21T08:52:50.442Z,30.2
2017-10-21T08:53:52.138Z,30.2
2017-10-21T08:54:52.591Z,30.2
2017-10-21T08:55:50.806Z,30.2
2017-10-21T08:56:52.303Z,30.2
2017-10-21T08:57:51.093Z,30.2
2017-10-21T08:58:51.110Z,30.2
2017-10-21T08:59:52.799Z,30.2
2017-10-21T09:00:50.914Z,30.2
2017-10-21T09:01:51.008Z,30.2
2017-10-21T09:02:51.424Z,30.2
2017-10-21T09:03:53.071Z,30.2
2017-10-21T09:04:51.498Z,30.2
2017-10-21T09:05:51.496Z,30.2
2017-10-21T09:06:51.574Z,30.2
2017-10-21T09:07:53.335Z,30.2
2017-10-21T09:08:52.953Z,30.2
2017-10-21T09:09:51.368Z,30.2
2017-10-21T09:10:53.038Z,30.2
2017-10-21T09:11:51.791Z,30.2
2017-10-21T09:12:51.881Z,30.2
2017-10-21T09:13:51.848Z,30.2
2017-10-21T09:14:51.880Z,30.2
2017-10-21T09:15:53.633Z,30.2
2017-10-21T09:16:51.652Z,30.2
2017-10-21T09:17:52.008Z,30.2
2017-10-21T09:18:52.167Z,30.2
2017-10-21T09:19:52.150Z,30.2
2017-10-21T09:20:53.868Z,30.2
2017-10-21T09:21:51.982Z,30.2
2017-10-21T09:22:54.017Z,30.3
2017-10-21T09:23:53.759Z,30.3
2017-10-21T09:24:52.183Z,30.3
2017-10-21T09:25:52.604Z,30.2
2017-10-21T09:26:53.892Z,30.3
2017-10-21T09:27:54.005Z,30.3
2017-10-21T09:28:52.423Z,30.3
2017-10-21T09:29:54.009Z,30.3
2017-10-21T09:30:54.104Z,30.3
2017-10-21T09:31:54.586Z,30.4
2017-10-21T09:32:52.951Z,30.4
2017-10-21T09:33:53.028Z,30.4
2017-10-21T09:34:53.078Z,30.4
2017-10-21T09:35:52.881Z,30.4
2017-10-21T09:36:53.129Z,30.4
2017-10-21T09:37:53.185Z,30.4
2017-10-21T09:38:54.869Z,30.4
2017-10-21T09:39:52.960Z,30.4
2017-10-21T09:40:53.392Z,30.4
2017-10-21T09:41:54.734Z,30.5
2017-10-21T09:42:53.408Z,30.4
2017-10-21T09:43:54.823Z,30.4
2017-10-21T09:44:55.236Z,30.5
2017-10-21T09:45:53.684Z,30.5
2017-10-21T09:46:53.696Z,30.5
2017-10-21T09:47:53.409Z,30.5
2017-10-21T09:48:53.816Z,30.5
2017-10-21T09:49:53.815Z,30.5
2017-10-21T09:50:55.487Z,30.5
2017-10-21T09:51:53.581Z,30.6
2017-10-21T09:52:55.234Z,30.5
2017-10-21T09:53:55.300Z,30.6
2017-10-21T09:54:55.642Z,30.6
2017-10-21T09:55:55.720Z,30.5
2017-10-21T09:56:55.453Z,30.6
2017-10-21T09:57:55.461Z,30.5
2017-10-21T09:58:55.838Z,30.6
2017-10-21T09:59:54.166Z,30.6
2017-10-21T10:00:55.573Z,30.6
2017-10-21T10:01:55.967Z,30.5
2017-10-21T10:02:54.361Z,30.6
2017-10-21T10:03:54.188Z,30.6
2017-10-21T10:04:54.599Z,30.6
2017-10-21T10:05:56.154Z,30.6
2017-10-21T10:06:54.317Z,30.6
2017-10-21T10:07:56.307Z,30.6
2017-10-21T10:08:54.424Z,30.6
2017-10-21T10:09:54.529Z,30.6
2017-10-21T10:10:56.104Z,30.6
2017-10-21T10:11:54.532Z,30.6
2017-10-21T10:12:54.533Z,30.5
2017-10-21T10:13:54.820Z,30.5
2017-10-21T10:14:56.128Z,30.5
2017-10-21T10:15:56.247Z,30.5
2017-10-21T10:16:56.660Z,30.5
2017-10-21T10:17:55.075Z,30.5
2017-10-21T10:18:56.780Z,30.5
2017-10-21T10:19:54.910Z,30.5
2017-10-21T10:20:56.585Z,30.5
2017-10-21T10:21:56.984Z,30.4
2017-10-21T10:22:56.757Z,30.4
2017-10-21T10:23:55.182Z,30.4
2017-10-21T10:24:57.155Z,30.4
2017-10-21T10:25:57.221Z,30.4
2017-10-21T10:26:57.302Z,30.4
2017-10-21T10:27:55.752Z,30.4
2017-10-21T10:28:57.079Z,30.4
2017-10-21T10:29:55.922Z,30.4
2017-10-21T10:30:55.912Z,30.4
2017-10-21T10:31:55.727Z,30.4
2017-10-21T10:32:57.451Z,30.4
2017-10-21T10:33:55.878Z,30.4
2017-10-21T10:34:57.885Z,30.4
2017-10-21T10:35:57.938Z,30.4
2017-10-21T10:36:58.010Z,30.4
2017-10-21T10:37:57.733Z,30.4
2017-10-21T10:38:56.171Z,30.4
2017-10-21T10:39:57.788Z,30.4
2017-10-21T10:40:57.831Z,30.4
2017-10-21T10:41:57.865Z,30.4
2017-10-21T10:42:56.536Z,30.4
2017-10-21T10:43:56.593Z,30.4
2017-10-21T10:44:56.348Z,30.4
2017-10-21T10:45:56.630Z,30.4
2017-10-21T10:46:56.709Z,30.4
2017-10-21T10:47:58.397Z,30.4
2017-10-21T10:48:56.819Z,30.4
2017-10-21T10:49:58.245Z,30.4
2017-10-21T10:50:58.310Z,30.4
2017-10-21T10:51:58.677Z,30.3
2017-10-21T10:52:58.756Z,30.4
2017-10-21T10:53:57.197Z,30.4
2017-10-21T10:54:58.822Z,30.4
2017-10-21T10:55:58.866Z,30.4
2017-10-21T10:56:58.535Z,30.4
2017-10-21T10:57:58.834Z,30.4
2017-10-21T10:58:58.560Z,30.4
2017-10-21T10:59:58.644Z,30.4
2017-10-21T11:00:57.364Z,30.5
2017-10-21T11:01:57.156Z,30.5
2017-10-21T11:02:59.143Z,30.5
2017-10-21T11:03:57.472Z,30.5
2017-10-21T11:04:59.206Z,30.5
2017-10-21T11:05:59.211Z,30.5
2017-10-21T11:06:59.249Z,30.5
2017-10-21T11:07:59.280Z,30.5
2017-10-21T11:08:59.375Z,30.5
2017-10-21T11:09:57.703Z,30.5
2017-10-21T11:10:57.762Z,30.4
2017-10-21T11:11:57.558Z,30.4
2017-10-21T11:12:59.554Z,30.4
2017-10-21T11:13:57.704Z,30.4
2017-10-21T11:14:59.327Z,30.4
2017-10-21T11:15:57.789Z,30.4
2017-10-21T11:16:59.720Z,30.4
2017-10-21T11:17:59.474Z,30.4
2017-10-21T11:18:59.916Z,30.4
2017-10-21T11:19:59.884Z,30.5
2017-10-21T11:20:58.233Z,30.6
2017-10-21T11:21:59.948Z,30.7
2017-10-21T11:23:00.075Z,30.8
2017-10-21T11:24:00.053Z,30.9
2017-10-21T11:24:59.783Z,30.9
2017-10-21T11:25:59.856Z,31
2017-10-21T11:26:59.889Z,30.9
2017-10-21T11:27:58.542Z,30.9
2017-10-21T11:28:58.387Z,30.9
2017-10-21T11:30:00.032Z,30.9
2017-10-21T11:31:00.010Z,30.9
2017-10-21T11:31:58.771Z,30.8
2017-10-21T11:32:58.742Z,30.8
2017-10-21T11:34:00.482Z,30.8
2017-10-21T11:34:58.833Z,30.8
2017-10-21T11:36:00.200Z,30.8
2017-10-21T11:36:58.610Z,30.8
2017-10-21T11:38:00.591Z,30.8
2017-10-21T11:39:00.675Z,30.9
2017-10-21T11:39:59.004Z,31
2017-10-21T11:40:59.127Z,31
2017-10-21T11:42:00.452Z,31
2017-10-21T11:43:00.805Z,31
2017-10-21T11:43:58.889Z,30.9
2017-10-21T11:44:59.200Z,30.9
2017-10-21T11:45:58.984Z,30.9
2017-10-21T11:47:01.029Z,30.8
2017-10-21T11:47:59.157Z,30.8
2017-10-21T11:49:01.163Z,30.8
2017-10-21T11:50:00.823Z,30.8
2017-10-21T11:50:59.523Z,30.8
2017-10-21T11:52:01.320Z,30.8
2017-10-21T11:52:59.633Z,30.8
2017-10-21T11:53:59.688Z,30.8
2017-10-21T11:54:59.787Z,30.9
2017-10-21T11:56:01.144Z,30.9
2017-10-21T11:57:01.242Z,30.9
2017-10-21T11:58:01.627Z,30.9
2017-10-21T11:59:00.058Z,30.9
2017-10-21T12:00:01.648Z,30.9
2017-10-21T12:00:59.800Z,30.9
2017-10-21T12:02:00.116Z,30.9
2017-10-21T12:03:01.752Z,30.9
2017-10-21T12:03:59.895Z,30.9
2017-10-21T12:05:02.036Z,31
2017-10-21T12:06:00.035Z,31
2017-10-21T12:07:02.040Z,31
2017-10-21T12:08:00.446Z,31
2017-10-21T12:09:00.205Z,31
2017-10-21T12:10:00.216Z,31
2017-10-21T12:11:02.344Z,31
2017-10-21T12:12:02.003Z,31
2017-10-21T12:13:02.385Z,31.1
2017-10-21T12:14:00.534Z,31.1
2017-10-21T12:15:02.541Z,31.1
2017-10-21T12:16:02.494Z,31
2017-10-21T12:17:00.935Z,31.1
2017-10-21T12:18:02.665Z,31.1
2017-10-21T12:19:02.465Z,31.1
2017-10-21T12:20:02.430Z,31.1
2017-10-21T12:21:00.811Z,31.1
2017-10-21T12:22:00.813Z,31.1
2017-10-21T12:23:02.491Z,31
2017-10-21T12:24:00.893Z,31
2017-10-21T12:25:01.284Z,31
2017-10-21T12:26:02.622Z,31
2017-10-21T12:27:02.686Z,31
2017-10-21T12:28:02.742Z,31
2017-10-21T12:29:01.395Z,31
2017-10-21T12:30:01.500Z,31
2017-10-21T12:31:01.595Z,31.1
2017-10-21T12:32:03.348Z,31.1
2017-10-21T12:33:03.005Z,31.1
2017-10-21T12:34:03.394Z,31.2
2017-10-21T12:35:01.600Z,31.2
2017-10-21T12:36:01.586Z,31.3
2017-10-21T12:37:01.919Z,31.3
2017-10-21T12:38:01.924Z,31.5
2017-10-21T12:39:01.621Z,32
2017-10-21T12:40:03.586Z,32.7
2017-10-21T12:41:03.319Z,33.3
2017-10-21T12:42:01.782Z,33.3
2017-10-21T12:43:01.818Z,33.2
2017-10-21T12:44:01.852Z,32.9
2017-10-21T12:45:03.488Z,32.7
2017-10-21T12:46:03.844Z,32.5
2017-10-21T12:47:03.632Z,32.3
2017-10-21T12:48:03.659Z,32.1
2017-10-21T12:49:02.023Z,32.1
2017-10-21T12:50:02.298Z,32.3
2017-10-21T12:51:02.367Z,32.7
2017-10-21T12:52:02.519Z,33.5
2017-10-21T12:53:04.096Z,34.3
2017-10-21T12:54:02.539Z,34.8
2017-10-21T12:55:02.591Z,35.6
2017-10-21T12:56:03.917Z,36.5
2017-10-21T12:57:04.005Z,37.2
2017-10-21T12:58:02.480Z,37.3
2017-10-21T12:59:02.764Z,37
2017-10-21T13:00:02.881Z,36.7
2017-10-21T13:01:02.878Z,36.2
2017-10-21T13:02:04.595Z,35.9
2017-10-21T13:03:04.690Z,35.8
2017-10-21T13:04:04.384Z,35.7
2017-10-21T13:05:04.379Z,35.8
2017-10-21T13:06:04.731Z,35.7
2017-10-21T13:07:03.197Z,35.3
2017-10-21T13:08:02.893Z,35
2017-10-21T13:09:04.884Z,34.7
2017-10-21T13:10:04.896Z,34.3
2017-10-21T13:11:02.989Z,34
2017-10-21T13:12:03.303Z,33.7
2017-10-21T13:13:03.064Z,33.5
2017-10-21T13:14:04.856Z,33.2
2017-10-21T13:15:03.610Z,33
2017-10-21T13:16:03.346Z,32.9
2017-10-21T13:17:05.050Z,32.7
2017-10-21T13:18:05.153Z,32.6
2017-10-21T13:19:03.573Z,32.5
2017-10-21T13:20:03.954Z,32.3
2017-10-21T13:21:03.776Z,32.2
2017-10-21T13:22:04.099Z,32.1
2017-10-21T13:23:04.165Z,32
2017-10-21T13:24:05.808Z,31.9